TimeHST,TemperatureF,Dew PointF,Humidity,Sea Level PressureIn,VisibilityMPH,Wind Direction,Wind SpeedMPH,Gust SpeedMPH,PrecipitationIn,Events,Conditions,WindDirDegrees,DateUTC
12:53 AM,69.1,64.9,87,30.00,10.0,WSW,5.8,-,N/A,,Scattered Clouds,240,2013-03-25 10:53:00
1:24 AM,69.1,66.0,90,30.00,5.0,South,5.8,-,0.03,Rain,Light Rain,170,2013-03-25 11:24:00
1:33 AM,69.1,66.0,90,30.00,10.0,South,4.6,-,0.04,Rain,Light Rain,180,2013-03-25 11:33:00
1:53 AM,69.1,66.0,90,29.99,10.0,SW,3.5,-,0.04,,Overcast,230,2013-03-25 11:53:00
2:37 AM,69.1,66.0,90,29.98,9.0,East,3.5,-,0.00,Rain,Light Rain,90,2013-03-25 12:37:00
2:53 AM,69.1,66.0,90,29.97,8.0,Calm,Calm,-,0.00,Rain,Light Rain,0,2013-03-25 12:53:00
3:45 AM,69.1,66.0,90,29.96,7.0,South,4.6,-,0.07,Rain,Light Rain,190,2013-03-25 13:45:00
3:53 AM,69.1,66.0,90,29.95,10.0,SSW,4.6,-,0.07,Rain,Light Rain,210,2013-03-25 13:53:00
4:53 AM,66.9,64.0,90,29.96,10.0,WSW,6.9,-,0.00,,Partly Cloudy,240,2013-03-25 14:53:00
5:53 AM,66.0,62.1,87,29.98,10.0,WSW,3.5,-,N/A,,Mostly Cloudy,240,2013-03-25 15:53:00
6:53 AM,66.0,62.1,87,30.00,10.0,SW,6.9,-,N/A,,Overcast,220,2013-03-25 16:53:00
7:34 AM,68.0,63.0,84,30.02,6.0,WSW,4.6,-,0.00,Rain,Light Rain,250,2013-03-25 17:34:00
7:53 AM,69.1,64.0,84,30.02,7.0,West,5.8,-,0.00,,Overcast,260,2013-03-25 17:53:00
8:39 AM,69.1,66.0,90,30.05,2.0,SE,3.5,-,0.00,Rain,Light Rain,130,2013-03-25 18:39:00
8:53 AM,69.1,66.9,93,30.05,2.0,Calm,Calm,-,0.02,Rain,Light Rain,0,2013-03-25 18:53:00
9:21 AM,69.1,66.0,90,30.06,3.0,West,3.5,-,0.03,Rain,Light Rain,260,2013-03-25 19:21:00
9:42 AM,70.0,68.0,93,30.05,10.0,WNW,4.6,-,0.04,Rain,Light Rain,290,2013-03-25 19:42:00
9:53 AM,72.0,69.1,91,30.04,10.0,West,8.1,-,0.04,,Overcast,280,2013-03-25 19:53:00
10:53 AM,73.9,68.0,82,30.04,10.0,NE,9.2,-,N/A,,Overcast,50,2013-03-25 20:53:00
11:00 AM,73.0,66.9,81,30.04,10.0,ENE,9.2,-,N/A,,Overcast,70,2013-03-25 21:00:00
11:24 AM,72.0,68.0,87,30.03,10.0,NE,8.1,-,0.00,,Overcast,50,2013-03-25 21:24:00
11:53 AM,75.9,69.1,79,30.01,10.0,ENE,8.1,-,0.00,,Overcast,70,2013-03-25 21:53:00
12:53 PM,75.0,66.9,76,29.99,10.0,East,9.2,-,N/A,,Mostly Cloudy,100,2013-03-25 22:53:00
1:41 PM,75.9,66.0,71,29.98,10.0,ESE,8.1,-,N/A,,Overcast,110,2013-03-25 23:41:00
1:48 PM,75.2,64.4,69,29.97,10.0,East,8.1,-,N/A,,Overcast,80,2013-03-25 23:48:00
1:53 PM,75.9,66.0,71,29.97,10.0,East,8.1,-,N/A,,Overcast,100,2013-03-25 23:53:00
2:53 PM,77.0,64.0,64,29.95,10.0,East,4.6,-,N/A,,Overcast,100,2013-03-26 00:53:00
3:15 PM,75.0,66.0,73,29.95,10.0,Calm,Calm,-,N/A,,Overcast,0,2013-03-26 01:15:00
3:48 PM,75.2,66.2,73,29.95,10.0,East,6.9,-,N/A,,Overcast,80,2013-03-26 01:48:00
3:53 PM,75.0,66.0,73,29.94,10.0,ENE,6.9,-,N/A,,Overcast,60,2013-03-26 01:53:00
4:53 PM,75.0,66.0,73,29.95,10.0,ENE,8.1,-,N/A,,Overcast,60,2013-03-26 02:53:00
5:53 PM,73.9,66.0,76,29.96,10.0,ENE,4.6,-,N/A,,Overcast,60,2013-03-26 03:53:00
6:53 PM,73.0,66.9,81,29.98,10.0,Calm,Calm,-,N/A,,Overcast,0,2013-03-26 04:53:00
7:20 PM,73.0,66.9,81,29.99,10.0,Calm,Calm,-,N/A,,Overcast,0,2013-03-26 05:20:00
7:53 PM,72.0,66.0,81,30.00,10.0,Calm,Calm,-,N/A,,Overcast,0,2013-03-26 05:53:00
8:11 PM,72.0,66.0,81,30.00,10.0,Calm,Calm,-,N/A,,Overcast,0,2013-03-26 06:11:00
8:53 PM,71.1,66.0,84,30.01,10.0,SW,3.5,-,N/A,,Overcast,220,2013-03-26 06:53:00
9:21 PM,71.1,66.0,84,30.02,10.0,WSW,5.8,-,N/A,,Overcast,240,2013-03-26 07:21:00
9:53 PM,71.1,66.0,84,30.03,10.0,WSW,4.6,-,N/A,,Overcast,250,2013-03-26 07:53:00
10:53 PM,71.1,66.0,84,30.03,10.0,WSW,5.8,-,N/A,,Overcast,250,2013-03-26 08:53:00
11:13 PM,71.1,66.0,84,30.03,10.0,West,5.8,-,N/A,,Overcast,260,2013-03-26 09:13:00
11:43 PM,70.0,64.9,84,30.03,10.0,West,4.6,-,0.00,,Overcast,260,2013-03-26 09:43:00
11:53 PM,70.0,64.9,84,30.02,10.0,WSW,3.5,-,0.00,,Overcast,240,2013-03-26 09:53:00